Altai — V7XL4 — position and weather

sailwx.info

Track history (hours):
 
Tides and Currents Weather Stations Pressure Air Temp Water Temp Dewpoint Dewpoint Depression Visibility Wind Speed Wind Dir Waves Ship Positions

Altai

Last reported at 2017-Oct-20 06:58 UTC. Time now 2017-Oct-20 07:25 UTC.
Position N 39°46' E 025°53'.

Length 249 m; draft 8 m.

Type: Ship (hazmat cat A). MMSI: 538004508.

Date/timePositionNaut miles runAvg speedWind from/ knotsBaromVisibWave heightAir tempDewpointWater temp
2017-Oct-20 06:58N 39°46' E 025°53'4 8.6
2017-Oct-20 06:30N 39°43' E 025°51'612.7
2017-Oct-20 06:00N 39°38' E 025°46'8312.5
2017-Oct-19 23:19N 38°23' E 024°57'512.7
2017-Oct-19 22:57N 38°19' E 024°54'612.5
2017-Oct-19 22:29N 38°14' E 024°51'612.3
2017-Oct-19 21:58N 38°08' E 024°47'7711.9
2017-Oct-19 15:32N 36°58' E 024°08'011.5
2017-Oct-19 15:30N 36°58' E 024°08'612.1
2017-Oct-19 15:00N 36°52' E 024°07'812.0
2017-Oct-19 14:20N 36°46' E 024°00'1312.4
2017-Oct-19 13:18N 36°39' E 023°47'413.0
2017-Oct-19 12:58N 36°36' E 023°43'612.6
2017-Oct-19 12:30N 36°33' E 023°37'612.5
2017-Oct-19 12:00N 36°28' E 023°31'20210.7
2017-Oct-18 17:05N 38°13' E 019°54'112.7
2017-Oct-18 17:00N 38°14' E 019°54'5012.5
2017-Oct-18 13:02N 39°00' E 019°30'012.5
2017-Oct-18 13:00N 39°00' E 019°30'612.5
2017-Oct-18 12:30N 39°06' E 019°27'812.5
2017-Oct-18 11:54N 39°13' E 019°23'613.0
2017-Oct-18 11:29N 39°18' E 019°20'1312.6
2017-Oct-18 10:25N 39°30' E 019°12'512.5
2017-Oct-18 10:00N 39°34' E 019°08'612.3
2017-Oct-18 09:30N 39°40' E 019°05'612.3
2017-Oct-18 09:00N 39°45' E 019°01'1412.6
2017-Oct-18 07:54N 39°58' E 018°54'812.4
2017-Oct-18 07:14N 40°06' E 018°54'713.1
2017-Oct-18 06:43N 40°12' E 018°51'512.4
2017-Oct-18 06:19N 40°16' E 018°47'412.7
2017-Oct-18 06:00N 40°19' E 018°43'1312.8
2017-Oct-18 04:58N 40°28' E 018°31'612.6
2017-Oct-18 04:30N 40°33' E 018°26'713.0
2017-Oct-18 03:58N 40°37' E 018°19'613.2
2017-Oct-18 03:30N 40°41' E 018°13'1012.9
2017-Oct-18 02:44N 40°48' E 018°03'1412.8
2017-Oct-18 01:40N 40°58' E 017°50'512.8
2017-Oct-18 01:17N 41°01' E 017°46'412.8
2017-Oct-18 00:58N 41°04' E 017°42'612.6
2017-Oct-18 00:30N 41°08' E 017°36'1912.8
2017-Oct-17 23:00N 41°21' E 017°18'8212.6
2017-Oct-17 16:30N 42°20' E 016°02'4212.4
2017-Oct-17 13:06N 42°50' E 015°22'112.6
2017-Oct-17 12:59N 42°51' E 015°21'2012.5
2017-Oct-17 11:24N 43°05' E 015°01'512.5
2017-Oct-17 11:00N 43°09' E 014°57'912.6
2017-Oct-17 10:19N 43°15' E 014°49'612.4
2017-Oct-17 09:52N 43°20' E 014°45'1412.3
2017-Oct-17 08:44N 43°32' E 014°34'312.6
2017-Oct-17 08:28N 43°35' E 014°32'612.5
2017-Oct-17 08:00N 43°39' E 014°28'712.3
2017-Oct-17 07:26N 43°45' E 014°22'512.1
2017-Oct-17 07:00N 43°50' E 014°18'612.1
2017-Oct-17 06:30N 43°55' E 014°14'1312.0
2017-Oct-17 05:28N 44°05' E 014°04'611.9
2017-Oct-17 05:00N 44°10' E 013°59'612.0
2017-Oct-17 04:30N 44°15' E 013°55'612.0
2017-Oct-17 04:00N 44°20' E 013°50'612.1
2017-Oct-17 03:30N 44°25' E 013°45'612.1
2017-Oct-17 02:59N 44°30' E 013°41'612.0
2017-Oct-17 02:30N 44°35' E 013°36'612.1
2017-Oct-17 01:59N 44°40' E 013°31'612.3
2017-Oct-17 01:30N 44°45' E 013°27'612.6
2017-Oct-17 01:00N 44°50' E 013°21'612.5
2017-Oct-17 00:30N 44°55' E 013°16'612.2
2017-Oct-17 00:00N 44°60' E 013°11'612.3
2017-Oct-16 23:30N 45°05' E 013°07'612.4
2017-Oct-16 23:00N 45°11' E 013°03'612.5
2017-Oct-16 22:30N 45°17' E 013°01'612.3
2017-Oct-16 22:00N 45°23' E 012°60'611.4
2017-Oct-16 21:30N 45°28' E 013°03'612.4
2017-Oct-16 21:00N 45°31' E 013°12'612.4
2017-Oct-16 20:30N 45°33' E 013°19'612.3
2017-Oct-16 20:00N 45°36' E 013°27'611.9
2017-Oct-16 19:30N 45°37' E 013°36'510.9
2017-Oct-16 19:00N 45°37' E 013°43'2 3.8
2017-Oct-16 18:26N 45°37' E 013°46'0 0.0
2017-Oct-16 17:59N 45°37' E 013°46'0 0.0
2017-Oct-16 16:59N 45°37' E 013°46'0 0.0
2017-Oct-16 16:23N 45°37' E 013°46'0 0.0
2017-Oct-16 15:50N 45°37' E 013°46'0 0.0
2017-Oct-16 15:20N 45°37' E 013°46'0 0.0
2017-Oct-16 14:59N 45°37' E 013°46'0 0.0
2017-Oct-16 13:59N 45°37' E 013°46'0 0.0
2017-Oct-16 13:29N 45°37' E 013°46'0 0.0
2017-Oct-16 12:59N 45°37' E 013°46'0 0.0
2017-Oct-16 12:29N 45°37' E 013°46'0 0.0
2017-Oct-16 11:44N 45°37' E 013°46'0 0.0
2017-Oct-16 10:56N 45°37' E 013°46'0 0.0
2017-Oct-16 10:26N 45°37' E 013°46'0 0.0
2017-Oct-16 09:56N 45°37' E 013°46'0 0.0
2017-Oct-16 09:26N 45°37' E 013°46'0 0.0
2017-Oct-16 08:56N 45°37' E 013°46'0 0.0
2017-Oct-16 08:29N 45°37' E 013°46'0 0.0
2017-Oct-16 07:53N 45°37' E 013°46'0 0.0
2017-Oct-16 07:29N 45°37' E 013°46'0 0.0
2017-Oct-16 06:56N 45°37' E 013°46'0 0.0
2017-Oct-16 06:29N 45°37' E 013°46'0 0.0
2017-Oct-16 05:53N 45°37' E 013°46'0 0.0
2017-Oct-16 05:26N 45°37' E 013°46'0 0.0
2017-Oct-16 04:59N 45°37' E 013°46'0 0.0
2017-Oct-16 04:14N 45°37' E 013°46'0 0.0
2017-Oct-16 03:50N 45°37' E 013°46'0 0.0
2017-Oct-16 03:20N 45°37' E 013°46'0 0.0
2017-Oct-16 02:59N 45°37' E 013°46'0 0.0
2017-Oct-16 02:29N 45°37' E 013°46'0 0.0
2017-Oct-16 01:59N 45°37' E 013°46'0 0.0
2017-Oct-16 01:26N 45°37' E 013°46'0 0.0
2017-Oct-16 00:44N 45°37' E 013°46'0 0.0
2017-Oct-16 00:14N 45°37' E 013°46'0 0.0
2017-Oct-15 23:53N 45°37' E 013°46'0 0.0
2017-Oct-15 23:26N 45°37' E 013°46'0 0.0
2017-Oct-15 22:59N 45°37' E 013°46'0 0.0
2017-Oct-15 22:29N 45°37' E 013°46'0 0.0
2017-Oct-15 21:53N 45°37' E 013°46'0 0.0
2017-Oct-15 21:23N 45°37' E 013°46'0 0.0
2017-Oct-15 20:56N 45°37' E 013°46'0 0.0
2017-Oct-15 20:26N 45°37' E 013°46'0 0.0
2017-Oct-15 19:59N 45°37' E 013°46'0 0.0
2017-Oct-15 19:29N 45°37' E 013°46'0 0.0
2017-Oct-15 18:59N 45°37' E 013°46'0 0.0
2017-Oct-15 18:29N 45°37' E 013°46'0 0.0
2017-Oct-15 17:59N 45°37' E 013°46'0 0.0
2017-Oct-15 17:26N 45°37' E 013°46'0 0.0
2017-Oct-15 16:53N 45°37' E 013°46'0 0.0
2017-Oct-15 16:29N 45°37' E 013°46'0 0.0
2017-Oct-15 15:59N 45°37' E 013°46'0 0.0
2017-Oct-15 15:29N 45°37' E 013°46'0 0.0
2017-Oct-15 14:50N 45°37' E 013°46'0 0.0
2017-Oct-15 13:53N 45°37' E 013°46'0 0.0
2017-Oct-15 13:29N 45°37' E 013°46'0 0.0
2017-Oct-15 12:59N 45°37' E 013°46'0 0.1
2017-Oct-15 12:30N 45°37' E 013°46'1 3.0
2017-Oct-15 12:00N 45°37' E 013°44'2 3.6
2017-Oct-15 11:30N 45°38' E 013°42'0 0.4
2017-Oct-15 10:58N 45°38' E 013°42'0 0.1
2017-Oct-15 10:25N 45°38' E 013°42'0 0.1
2017-Oct-15 09:58N 45°38' E 013°42'0 0.1
2017-Oct-15 09:28N 45°38' E 013°42'0 0.0
2017-Oct-15 08:58N 45°38' E 013°42'0 0.0
2017-Oct-15 08:28N 45°38' E 013°42'0 0.0
2017-Oct-15 07:58N 45°38' E 013°42'0 0.0
2017-Oct-15 07:28N 45°38' E 013°42'0 0.0
2017-Oct-15 06:58N 45°38' E 013°42'0 0.0
2017-Oct-15 06:28N 45°38' E 013°42'0 0.1
2017-Oct-15 05:58N 45°38' E 013°42'0 0.0
2017-Oct-15 05:28N 45°38' E 013°42'0 0.0
2017-Oct-15 04:55N 45°38' E 013°42'0 0.0
2017-Oct-15 04:28N 45°38' E 013°42'0 0.0
2017-Oct-15 03:58N 45°38' E 013°42'0 0.0
2017-Oct-15 03:28N 45°38' E 013°42'0 0.0
2017-Oct-15 02:58N 45°38' E 013°42'0 0.0
2017-Oct-15 02:28N 45°38' E 013°42'0 0.1
2017-Oct-15 01:58N 45°38' E 013°42'0 0.1
2017-Oct-15 01:28N 45°38' E 013°42'0 0.0
2017-Oct-15 00:58N 45°38' E 013°42'0 0.0
2017-Oct-15 00:28N 45°38' E 013°42'0 0.1
2017-Oct-14 23:58N 45°38' E 013°42'0 0.1
2017-Oct-14 23:25N 45°38' E 013°42'0 0.0
2017-Oct-14 22:58N 45°38' E 013°42'0 0.0
2017-Oct-14 22:22N 45°38' E 013°42'0 0.1
2017-Oct-14 21:58N 45°38' E 013°42'0 0.1
2017-Oct-14 21:28N 45°38' E 013°42'0 0.1
2017-Oct-14 20:58N 45°38' E 013°42'0 0.1
2017-Oct-14 20:22N 45°38' E 013°42'0 0.0
2017-Oct-14 19:52N 45°38' E 013°42'0 0.0
2017-Oct-14 19:28N 45°38' E 013°42'0 0.0
2017-Oct-14 18:58N 45°38' E 013°42'0 0.0
2017-Oct-14 18:28N 45°38' E 013°42'0 0.0
2017-Oct-14 17:58N 45°38' E 013°42'0 0.0
2017-Oct-14 17:28N 45°38' E 013°42'0 0.0
2017-Oct-14 16:58N 45°38' E 013°42'0 0.0
2017-Oct-14 16:28N 45°38' E 013°42'0 0.0
2017-Oct-14 15:58N 45°38' E 013°42'0 0.0
2017-Oct-14 15:28N 45°38' E 013°42'0 0.0
2017-Oct-14 14:58N 45°38' E 013°42'0 0.0
2017-Oct-14 14:28N 45°38' E 013°42'0 0.1
2017-Oct-14 13:58N 45°38' E 013°42'0 0.0
2017-Oct-14 13:28N 45°38' E 013°42'0 0.0
2017-Oct-14 12:58N 45°38' E 013°42'0 0.1
2017-Oct-14 12:25N 45°38' E 013°42'0 0.0
2017-Oct-14 11:58N 45°38' E 013°42'0 0.0
2017-Oct-14 11:28N 45°38' E 013°42'0 0.0
2017-Oct-14 10:58N 45°38' E 013°42'0 0.1
2017-Oct-14 10:28N 45°38' E 013°42'0 0.1
2017-Oct-14 09:58N 45°38' E 013°42'0 0.1
2017-Oct-14 09:28N 45°38' E 013°42'0 0.1
2017-Oct-14 08:58N 45°38' E 013°42'0 0.0
2017-Oct-14 08:28N 45°38' E 013°42'0 0.0
2017-Oct-14 07:52N 45°38' E 013°42'0 0.0
2017-Oct-14 07:28N 45°38' E 013°42'0 0.1
2017-Oct-14 06:55N 45°38' E 013°42'0 0.0
2017-Oct-14 06:25N 45°38' E 013°42'1 1.6
2017-Oct-14 06:00N 45°38' E 013°41'4 7.1
2017-Oct-14 05:30N 45°36' E 013°37'5 9.4
2017-Oct-14 05:00N 45°34' E 013°31'510.7
2017-Oct-14 04:30N 45°31' E 013°24'611.1
2017-Oct-14 04:00N 45°28' E 013°18'611.2
2017-Oct-14 03:30N 45°25' E 013°11'510.9
2017-Oct-14 03:00N 45°25' E 013°03'3 6.0
2017-Oct-14 02:30N 45°28' E 013°01'0 0.3
2017-Oct-14 01:58N 45°28' E 013°00'0 0.0
2017-Oct-14 01:28N 45°28' E 013°00'0 0.0
2017-Oct-14 00:58N 45°28' E 013°00'0 0.0
2017-Oct-14 00:28N 45°28' E 013°00'0 0.0
2017-Oct-13 23:58N 45°28' E 013°00'0 0.0
2017-Oct-13 23:25N 45°28' E 013°00'0 0.0
2017-Oct-13 22:58N 45°28' E 013°00'0 0.0
2017-Oct-13 22:28N 45°28' E 013°00'0 0.0
2017-Oct-13 21:58N 45°28' E 013°00'0 0.0
2017-Oct-13 21:28N 45°28' E 013°00'0 0.0
2017-Oct-13 20:58N 45°28' E 013°00'0 0.0
2017-Oct-13 20:07N 45°28' E 013°00'0 0.0
2017-Oct-13 19:55N 45°28' E 013°00'0 0.0
2017-Oct-13 19:28N 45°28' E 013°00'0 0.0
2017-Oct-13 18:58N 45°28' E 013°00'0 0.0
2017-Oct-13 18:22N 45°28' E 013°00'0 0.0
2017-Oct-13 17:58N 45°28' E 013°00'0 0.0
2017-Oct-13 17:22N 45°28' E 013°00'0 0.0
2017-Oct-13 16:55N 45°28' E 013°00'0 0.0
2017-Oct-13 16:28N 45°28' E 013°00'0 0.0
2017-Oct-13 15:58N 45°28' E 013°00'0 0.0
2017-Oct-13 15:25N 45°28' E 013°00'0 0.0
2017-Oct-13 14:58N 45°28' E 013°00'0 0.0
2017-Oct-13 14:25N 45°28' E 013°00'0 0.0
2017-Oct-13 13:58N 45°28' E 013°00'0 0.0
2017-Oct-13 13:25N 45°28' E 013°00'0 0.0
2017-Oct-13 12:46N 45°28' E 013°00'0 0.0
2017-Oct-13 12:28N 45°28' E 013°00'0 0.0
2017-Oct-13 11:58N 45°28' E 013°00'0 0.0
2017-Oct-13 11:28N 45°28' E 013°00'0 0.0
2017-Oct-13 10:55N 45°28' E 013°00'0 0.0
2017-Oct-13 10:28N 45°28' E 013°00'0 0.0
2017-Oct-13 09:58N 45°28' E 013°00'0 0.0
2017-Oct-13 09:28N 45°28' E 013°00'0 0.0
2017-Oct-13 08:40N 45°28' E 013°00'0 0.0
2017-Oct-13 08:22N 45°28' E 013°00'0 0.0
2017-Oct-13 07:52N 45°28' E 013°00'0 0.0
2017-Oct-13 07:28N 45°28' E 013°00'0 0.0
2017-Oct-13 06:58N 45°28' E 013°00'0 0.0
2017-Oct-13 06:28N 45°28' E 013°00'0 0.0
2017-Oct-13 05:55N 45°28' E 013°00'0 0.0
2017-Oct-13 05:28N 45°28' E 013°00'0 0.0
2017-Oct-13 04:58N 45°28' E 013°00'0 0.0
2017-Oct-13 04:28N 45°28' E 013°00'0 0.0
2017-Oct-13 03:58N 45°28' E 013°00'0 0.0
2017-Oct-13 03:28N 45°28' E 013°00'0 0.0
2017-Oct-13 02:58N 45°28' E 013°00'0 0.0
2017-Oct-13 02:25N 45°28' E 013°00'0 0.0
2017-Oct-13 01:58N 45°28' E 013°00'0 0.0
2017-Oct-13 01:22N 45°28' E 013°00'0 0.0
2017-Oct-13 00:58N 45°28' E 013°00'0 0.0
2017-Oct-13 00:28N 45°28' E 013°00'0 0.0
2017-Oct-12 23:52N 45°28' E 013°00'0 0.0
2017-Oct-12 23:28N 45°28' E 013°00'0 0.0
2017-Oct-12 22:58N 45°28' E 013°00'0 0.0
2017-Oct-12 22:28N 45°28' E 013°00'0 0.0
2017-Oct-12 21:58N 45°28' E 013°00'0 0.0
2017-Oct-12 21:28N 45°28' E 013°00'0 0.0
2017-Oct-12 20:49N 45°28' E 013°00'0 0.0
2017-Oct-12 20:25N 45°28' E 013°00'0 0.0
2017-Oct-12 19:58N 45°28' E 013°00'0 0.0
2017-Oct-12 19:28N 45°28' E 013°00'0 0.0
2017-Oct-12 18:58N 45°28' E 013°00'0 0.0
2017-Oct-12 18:28N 45°28' E 013°00'0 0.0
2017-Oct-12 17:52N 45°28' E 013°00'0 0.0
2017-Oct-12 17:22N 45°28' E 013°00'0 0.0
2017-Oct-12 16:55N 45°28' E 013°00'0 0.0
2017-Oct-12 16:28N 45°28' E 013°00'0 0.0
2017-Oct-12 15:58N 45°28' E 013°00'0 0.0
2017-Oct-12 15:28N 45°28' E 013°00'0 0.0
2017-Oct-12 14:58N 45°28' E 013°00'0 0.0
2017-Oct-12 14:28N 45°28' E 013°00'0 0.0
2017-Oct-12 13:58N 45°28' E 013°00'0 0.0
2017-Oct-12 13:28N 45°28' E 013°00'0 0.0
2017-Oct-12 12:52N 45°28' E 013°00'0 0.0
2017-Oct-12 12:28N 45°28' E 013°00'0 0.0
2017-Oct-12 11:55N 45°28' E 013°00'0 0.0
2017-Oct-12 11:25N 45°28' E 013°00'0 0.0
2017-Oct-12 10:58N 45°28' E 013°00'0 0.0
2017-Oct-12 10:25N 45°28' E 013°00'0 0.0
2017-Oct-12 09:55N 45°28' E 013°00'0 0.0
2017-Oct-12 09:25N 45°28' E 013°00'0 0.0
2017-Oct-12 08:58N 45°28' E 013°00'0 0.0
2017-Oct-12 08:28N 45°28' E 013°00'0 0.0
2017-Oct-12 07:58N 45°28' E 013°00'0 0.0
2017-Oct-12 07:25N 45°28' E 013°00'0 0.0
2017-Oct-12 06:52N 45°28' E 013°00'0 0.0
2017-Oct-12 06:28N 45°28' E 013°00'0 0.1
2017-Oct-12 05:55N 45°28' E 013°00'0 0.0
2017-Oct-12 05:22N 45°28' E 013°00'0 0.0
2017-Oct-12 04:58N 45°28' E 013°00'0 0.0
2017-Oct-12 04:28N 45°28' E 013°00'0 0.0
2017-Oct-12 03:58N 45°28' E 013°00'0 0.0
2017-Oct-12 03:28N 45°28' E 013°00'0 0.0
2017-Oct-12 02:58N 45°28' E 013°00'0 0.0
2017-Oct-12 02:25N 45°28' E 013°00'0 0.0
2017-Oct-12 01:58N 45°28' E 013°00'0 0.0
2017-Oct-12 01:25N 45°28' E 013°00'0 0.0
2017-Oct-12 00:58N 45°28' E 013°00'0 0.0
2017-Oct-12 00:28N 45°28' E 013°00'0 0.0
2017-Oct-11 23:55N 45°28' E 013°00'0 0.0
2017-Oct-11 23:28N 45°28' E 013°00'0 0.0
2017-Oct-11 22:58N 45°28' E 013°00'0 0.0
2017-Oct-11 22:28N 45°28' E 013°00'0 0.0
2017-Oct-11 21:58N 45°28' E 013°00'0 0.0
2017-Oct-11 21:25N 45°28' E 013°00'0 0.0
2017-Oct-11 20:58N 45°28' E 013°00'0 0.0
2017-Oct-11 20:25N 45°28' E 013°00'0 0.0
2017-Oct-11 19:58N 45°28' E 013°00'0 0.0
2017-Oct-11 19:28N 45°28' E 013°00'0 0.0
2017-Oct-11 18:58N 45°28' E 013°00'0 0.0
2017-Oct-11 18:07N 45°28' E 013°00'0 0.0
2017-Oct-11 17:55N 45°28' E 013°00'0 0.0
2017-Oct-11 17:28N 45°28' E 013°00'0 0.0
2017-Oct-11 16:58N 45°28' E 013°00'0 0.0
2017-Oct-10 23:55N 45°28' E 013°00'0 0.0
2017-Oct-10 23:28N 45°28' E 013°00'0 0.0
2017-Oct-10 22:58N 45°28' E 013°00'0 0.0
2017-Oct-10 22:28N 45°28' E 013°00'0 0.0
2017-Oct-10 21:58N 45°28' E 013°00'0 0.0
2017-Oct-10 21:28N 45°28' E 013°00'0 0.0
2017-Oct-10 20:58N 45°28' E 013°00'0 0.0
2017-Oct-10 20:25N 45°28' E 013°00'0 0.0
2017-Oct-10 19:58N 45°28' E 013°00'0 0.0
2017-Oct-10 19:28N 45°28' E 013°00'0 0.0
2017-Oct-10 18:58N 45°28' E 013°00'0 0.0
2017-Oct-10 18:25N 45°28' E 013°00'0 0.0
2017-Oct-10 17:58N 45°28' E 013°00'0 0.0
2017-Oct-10 17:28N 45°28' E 013°00'0 0.0
2017-Oct-10 16:58N 45°28' E 013°00'0 0.0
2017-Oct-10 16:28N 45°28' E 013°00'0 0.0
2017-Oct-10 15:55N 45°28' E 013°00'0 0.0
2017-Oct-10 15:28N 45°28' E 013°00'0 0.0
2017-Oct-10 14:58N 45°28' E 013°00'0 0.0
2017-Oct-10 13:58N 45°28' E 013°00'0 0.0
2017-Oct-10 13:28N 45°28' E 013°00'0 0.0
2017-Oct-10 12:58N 45°28' E 013°00'0 0.0
2017-Oct-10 12:28N 45°28' E 013°00'0 0.0
2017-Oct-10 11:58N 45°28' E 013°00'0 0.0
2017-Oct-10 11:28N 45°28' E 013°00'0 0.0
2017-Oct-10 10:55N 45°28' E 013°00'0 0.0
2017-Oct-10 10:28N 45°28' E 013°00'0 0.0
2017-Oct-10 09:58N 45°28' E 013°00'0 0.0
2017-Oct-10 09:28N 45°28' E 013°00'0 0.0
2017-Oct-10 08:58N 45°28' E 013°00'0 0.0
2017-Oct-10 08:16N 45°28' E 013°00'0 0.0
2017-Oct-10 07:52N 45°28' E 013°00'0 0.0
2017-Oct-10 07:22N 45°28' E 013°00'  
Track history (hours):
 
Tides and Currents Weather Stations Pressure Air Temp Water Temp Dewpoint Dewpoint Depression Visibility Wind Speed Wind Dir Waves Ship Positions

Altai

Last reported at 2017-Oct-20 06:58 UTC. Time now 2017-Oct-20 07:25 UTC.
Position N 39°46' E 025°53'.

Length 249 m; draft 8 m.

Type: Ship (hazmat cat A). MMSI: 538004508.

Date/timePositionNaut miles runAvg speedWind from/ knotsBaromVisibWave heightAir tempDewpointWater temp
2017-Oct-20 06:58N 39°46' E 025°53'4 8.6
2017-Oct-20 06:30N 39°43' E 025°51'612.7
2017-Oct-20 06:00N 39°38' E 025°46'8312.5
2017-Oct-19 23:19N 38°23' E 024°57'512.7
2017-Oct-19 22:57N 38°19' E 024°54'612.5
2017-Oct-19 22:29N 38°14' E 024°51'612.3
2017-Oct-19 21:58N 38°08' E 024°47'7711.9
2017-Oct-19 15:32N 36°58' E 024°08'011.5
2017-Oct-19 15:30N 36°58' E 024°08'612.1
2017-Oct-19 15:00N 36°52' E 024°07'812.0
2017-Oct-19 14:20N 36°46' E 024°00'1312.4
2017-Oct-19 13:18N 36°39' E 023°47'413.0
2017-Oct-19 12:58N 36°36' E 023°43'612.6
2017-Oct-19 12:30N 36°33' E 023°37'612.5
2017-Oct-19 12:00N 36°28' E 023°31'20210.7
2017-Oct-18 17:05N 38°13' E 019°54'112.7
2017-Oct-18 17:00N 38°14' E 019°54'5012.5
2017-Oct-18 13:02N 39°00' E 019°30'012.5
2017-Oct-18 13:00N 39°00' E 019°30'612.5
2017-Oct-18 12:30N 39°06' E 019°27'812.5
2017-Oct-18 11:54N 39°13' E 019°23'613.0
2017-Oct-18 11:29N 39°18' E 019°20'1312.6
2017-Oct-18 10:25N 39°30' E 019°12'512.5
2017-Oct-18 10:00N 39°34' E 019°08'612.3
2017-Oct-18 09:30N 39°40' E 019°05'612.3
2017-Oct-18 09:00N 39°45' E 019°01'1412.6
2017-Oct-18 07:54N 39°58' E 018°54'812.4
2017-Oct-18 07:14N 40°06' E 018°54'713.1
2017-Oct-18 06:43N 40°12' E 018°51'512.4
2017-Oct-18 06:19N 40°16' E 018°47'412.7
2017-Oct-18 06:00N 40°19' E 018°43'1312.8
2017-Oct-18 04:58N 40°28' E 018°31'612.6
2017-Oct-18 04:30N 40°33' E 018°26'713.0
2017-Oct-18 03:58N 40°37' E 018°19'613.2
2017-Oct-18 03:30N 40°41' E 018°13'1012.9
2017-Oct-18 02:44N 40°48' E 018°03'1412.8
2017-Oct-18 01:40N 40°58' E 017°50'512.8
2017-Oct-18 01:17N 41°01' E 017°46'412.8
2017-Oct-18 00:58N 41°04' E 017°42'612.6
2017-Oct-18 00:30N 41°08' E 017°36'1912.8
2017-Oct-17 23:00N 41°21' E 017°18'8212.6
2017-Oct-17 16:30N 42°20' E 016°02'4212.4
2017-Oct-17 13:06N 42°50' E 015°22'112.6
2017-Oct-17 12:59N 42°51' E 015°21'2012.5
2017-Oct-17 11:24N 43°05' E 015°01'512.5
2017-Oct-17 11:00N 43°09' E 014°57'912.6
2017-Oct-17 10:19N 43°15' E 014°49'612.4
2017-Oct-17 09:52N 43°20' E 014°45'1412.3
2017-Oct-17 08:44N 43°32' E 014°34'312.6
2017-Oct-17 08:28N 43°35' E 014°32'612.5
2017-Oct-17 08:00N 43°39' E 014°28'712.3
2017-Oct-17 07:26N 43°45' E 014°22'512.1
2017-Oct-17 07:00N 43°50' E 014°18'612.1
2017-Oct-17 06:30N 43°55' E 014°14'1312.0
2017-Oct-17 05:28N 44°05' E 014°04'611.9
2017-Oct-17 05:00N 44°10' E 013°59'612.0
2017-Oct-17 04:30N 44°15' E 013°55'612.0
2017-Oct-17 04:00N 44°20' E 013°50'612.1
2017-Oct-17 03:30N 44°25' E 013°45'612.1
2017-Oct-17 02:59N 44°30' E 013°41'612.0
2017-Oct-17 02:30N 44°35' E 013°36'612.1
2017-Oct-17 01:59N 44°40' E 013°31'612.3
2017-Oct-17 01:30N 44°45' E 013°27'612.6
2017-Oct-17 01:00N 44°50' E 013°21'612.5
2017-Oct-17 00:30N 44°55' E 013°16'612.2
2017-Oct-17 00:00N 44°60' E 013°11'612.3
2017-Oct-16 23:30N 45°05' E 013°07'612.4
2017-Oct-16 23:00N 45°11' E 013°03'612.5
2017-Oct-16 22:30N 45°17' E 013°01'612.3
2017-Oct-16 22:00N 45°23' E 012°60'611.4
2017-Oct-16 21:30N 45°28' E 013°03'612.4
2017-Oct-16 21:00N 45°31' E 013°12'612.4
2017-Oct-16 20:30N 45°33' E 013°19'612.3
2017-Oct-16 20:00N 45°36' E 013°27'611.9
2017-Oct-16 19:30N 45°37' E 013°36'510.9
2017-Oct-16 19:00N 45°37' E 013°43'2 3.8
2017-Oct-16 18:26N 45°37' E 013°46'0 0.0
2017-Oct-16 17:59N 45°37' E 013°46'0 0.0
2017-Oct-16 16:59N 45°37' E 013°46'0 0.0
2017-Oct-16 16:23N 45°37' E 013°46'0 0.0
2017-Oct-16 15:50N 45°37' E 013°46'0 0.0
2017-Oct-16 15:20N 45°37' E 013°46'0 0.0
2017-Oct-16 14:59N 45°37' E 013°46'0 0.0
2017-Oct-16 13:59N 45°37' E 013°46'0 0.0
2017-Oct-16 13:29N 45°37' E 013°46'0 0.0
2017-Oct-16 12:59N 45°37' E 013°46'0 0.0
2017-Oct-16 12:29N 45°37' E 013°46'0 0.0
2017-Oct-16 11:44N 45°37' E 013°46'0 0.0
2017-Oct-16 10:56N 45°37' E 013°46'0 0.0
2017-Oct-16 10:26N 45°37' E 013°46'0 0.0
2017-Oct-16 09:56N 45°37' E 013°46'0 0.0
2017-Oct-16 09:26N 45°37' E 013°46'0 0.0
2017-Oct-16 08:56N 45°37' E 013°46'0 0.0
2017-Oct-16 08:29N 45°37' E 013°46'0 0.0
2017-Oct-16 07:53N 45°37' E 013°46'0 0.0
2017-Oct-16 07:29N 45°37' E 013°46'0 0.0
2017-Oct-16 06:56N 45°37' E 013°46'0 0.0
2017-Oct-16 06:29N 45°37' E 013°46'0 0.0
2017-Oct-16 05:53N 45°37' E 013°46'0 0.0
2017-Oct-16 05:26N 45°37' E 013°46'0 0.0
2017-Oct-16 04:59N 45°37' E 013°46'0 0.0
2017-Oct-16 04:14N 45°37' E 013°46'0 0.0
2017-Oct-16 03:50N 45°37' E 013°46'0 0.0
2017-Oct-16 03:20N 45°37' E 013°46'0 0.0
2017-Oct-16 02:59N 45°37' E 013°46'0 0.0
2017-Oct-16 02:29N 45°37' E 013°46'0 0.0
2017-Oct-16 01:59N 45°37' E 013°46'0 0.0
2017-Oct-16 01:26N 45°37' E 013°46'0 0.0
2017-Oct-16 00:44N 45°37' E 013°46'0 0.0
2017-Oct-16 00:14N 45°37' E 013°46'0 0.0
2017-Oct-15 23:53N 45°37' E 013°46'0 0.0
2017-Oct-15 23:26N 45°37' E 013°46'0 0.0
2017-Oct-15 22:59N 45°37' E 013°46'0 0.0
2017-Oct-15 22:29N 45°37' E 013°46'0 0.0
2017-Oct-15 21:53N 45°37' E 013°46'0 0.0
2017-Oct-15 21:23N 45°37' E 013°46'0 0.0
2017-Oct-15 20:56N 45°37' E 013°46'0 0.0
2017-Oct-15 20:26N 45°37' E 013°46'0 0.0
2017-Oct-15 19:59N 45°37' E 013°46'0 0.0
2017-Oct-15 19:29N 45°37' E 013°46'0 0.0
2017-Oct-15 18:59N 45°37' E 013°46'0 0.0
2017-Oct-15 18:29N 45°37' E 013°46'0 0.0
2017-Oct-15 17:59N 45°37' E 013°46'0 0.0
2017-Oct-15 17:26N 45°37' E 013°46'0 0.0
2017-Oct-15 16:53N 45°37' E 013°46'0 0.0
2017-Oct-15 16:29N 45°37' E 013°46'0 0.0
2017-Oct-15 15:59N 45°37' E 013°46'0 0.0
2017-Oct-15 15:29N 45°37' E 013°46'0 0.0
2017-Oct-15 14:50N 45°37' E 013°46'0 0.0
2017-Oct-15 13:53N 45°37' E 013°46'0 0.0
2017-Oct-15 13:29N 45°37' E 013°46'0 0.0
2017-Oct-15 12:59N 45°37' E 013°46'0 0.1
2017-Oct-15 12:30N 45°37' E 013°46'1 3.0
2017-Oct-15 12:00N 45°37' E 013°44'2 3.6
2017-Oct-15 11:30N 45°38' E 013°42'0 0.4
2017-Oct-15 10:58N 45°38' E 013°42'0 0.1
2017-Oct-15 10:25N 45°38' E 013°42'0 0.1
2017-Oct-15 09:58N 45°38' E 013°42'0 0.1
2017-Oct-15 09:28N 45°38' E 013°42'0 0.0
2017-Oct-15 08:58N 45°38' E 013°42'0 0.0
2017-Oct-15 08:28N 45°38' E 013°42'0 0.0
2017-Oct-15 07:58N 45°38' E 013°42'0 0.0
2017-Oct-15 07:28N 45°38' E 013°42'0 0.0
2017-Oct-15 06:58N 45°38' E 013°42'0 0.0
2017-Oct-15 06:28N 45°38' E 013°42'0 0.1
2017-Oct-15 05:58N 45°38' E 013°42'0 0.0
2017-Oct-15 05:28N 45°38' E 013°42'0 0.0
2017-Oct-15 04:55N 45°38' E 013°42'0 0.0
2017-Oct-15 04:28N 45°38' E 013°42'0 0.0
2017-Oct-15 03:58N 45°38' E 013°42'0 0.0
2017-Oct-15 03:28N 45°38' E 013°42'0 0.0
2017-Oct-15 02:58N 45°38' E 013°42'0 0.0
2017-Oct-15 02:28N 45°38' E 013°42'0 0.1
2017-Oct-15 01:58N 45°38' E 013°42'0 0.1
2017-Oct-15 01:28N 45°38' E 013°42'0 0.0
2017-Oct-15 00:58N 45°38' E 013°42'0 0.0
2017-Oct-15 00:28N 45°38' E 013°42'0 0.1
2017-Oct-14 23:58N 45°38' E 013°42'0 0.1
2017-Oct-14 23:25N 45°38' E 013°42'0 0.0
2017-Oct-14 22:58N 45°38' E 013°42'0 0.0
2017-Oct-14 22:22N 45°38' E 013°42'0 0.1
2017-Oct-14 21:58N 45°38' E 013°42'0 0.1
2017-Oct-14 21:28N 45°38' E 013°42'0 0.1
2017-Oct-14 20:58N 45°38' E 013°42'0 0.1
2017-Oct-14 20:22N 45°38' E 013°42'0 0.0
2017-Oct-14 19:52N 45°38' E 013°42'0 0.0
2017-Oct-14 19:28N 45°38' E 013°42'0 0.0
2017-Oct-14 18:58N 45°38' E 013°42'0 0.0
2017-Oct-14 18:28N 45°38' E 013°42'0 0.0
2017-Oct-14 17:58N 45°38' E 013°42'0 0.0
2017-Oct-14 17:28N 45°38' E 013°42'0 0.0
2017-Oct-14 16:58N 45°38' E 013°42'0 0.0
2017-Oct-14 16:28N 45°38' E 013°42'0 0.0
2017-Oct-14 15:58N 45°38' E 013°42'0 0.0
2017-Oct-14 15:28N 45°38' E 013°42'0 0.0
2017-Oct-14 14:58N 45°38' E 013°42'0 0.0
2017-Oct-14 14:28N 45°38' E 013°42'0 0.1
2017-Oct-14 13:58N 45°38' E 013°42'0 0.0
2017-Oct-14 13:28N 45°38' E 013°42'0 0.0
2017-Oct-14 12:58N 45°38' E 013°42'0 0.1
2017-Oct-14 12:25N 45°38' E 013°42'0 0.0
2017-Oct-14 11:58N 45°38' E 013°42'0 0.0
2017-Oct-14 11:28N 45°38' E 013°42'0 0.0
2017-Oct-14 10:58N 45°38' E 013°42'0 0.1
2017-Oct-14 10:28N 45°38' E 013°42'0 0.1
2017-Oct-14 09:58N 45°38' E 013°42'0 0.1
2017-Oct-14 09:28N 45°38' E 013°42'0 0.1
2017-Oct-14 08:58N 45°38' E 013°42'0 0.0
2017-Oct-14 08:28N 45°38' E 013°42'0 0.0
2017-Oct-14 07:52N 45°38' E 013°42'0 0.0
2017-Oct-14 07:28N 45°38' E 013°42'0 0.1
2017-Oct-14 06:55N 45°38' E 013°42'0 0.0
2017-Oct-14 06:25N 45°38' E 013°42'1 1.6
2017-Oct-14 06:00N 45°38' E 013°41'4 7.1
2017-Oct-14 05:30N 45°36' E 013°37'5 9.4
2017-Oct-14 05:00N 45°34' E 013°31'510.7
2017-Oct-14 04:30N 45°31' E 013°24'611.1
2017-Oct-14 04:00N 45°28' E 013°18'611.2
2017-Oct-14 03:30N 45°25' E 013°11'510.9
2017-Oct-14 03:00N 45°25' E 013°03'3 6.0
2017-Oct-14 02:30N 45°28' E 013°01'0 0.3
2017-Oct-14 01:58N 45°28' E 013°00'0 0.0
2017-Oct-14 01:28N 45°28' E 013°00'0 0.0
2017-Oct-14 00:58N 45°28' E 013°00'0 0.0
2017-Oct-14 00:28N 45°28' E 013°00'0 0.0
2017-Oct-13 23:58N 45°28' E 013°00'0 0.0
2017-Oct-13 23:25N 45°28' E 013°00'0 0.0
2017-Oct-13 22:58N 45°28' E 013°00'0 0.0
2017-Oct-13 22:28N 45°28' E 013°00'0 0.0
2017-Oct-13 21:58N 45°28' E 013°00'0 0.0
2017-Oct-13 21:28N 45°28' E 013°00'0 0.0
2017-Oct-13 20:58N 45°28' E 013°00'0 0.0
2017-Oct-13 20:07N 45°28' E 013°00'0 0.0
2017-Oct-13 19:55N 45°28' E 013°00'0 0.0
2017-Oct-13 19:28N 45°28' E 013°00'0 0.0
2017-Oct-13 18:58N 45°28' E 013°00'0 0.0
2017-Oct-13 18:22N 45°28' E 013°00'0 0.0
2017-Oct-13 17:58N 45°28' E 013°00'0 0.0
2017-Oct-13 17:22N 45°28' E 013°00'0 0.0
2017-Oct-13 16:55N 45°28' E 013°00'0 0.0
2017-Oct-13 16:28N 45°28' E 013°00'0 0.0
2017-Oct-13 15:58N 45°28' E 013°00'0 0.0
2017-Oct-13 15:25N 45°28' E 013°00'0 0.0
2017-Oct-13 14:58N 45°28' E 013°00'0 0.0
2017-Oct-13 14:25N 45°28' E 013°00'0 0.0
2017-Oct-13 13:58N 45°28' E 013°00'0 0.0
2017-Oct-13 13:25N 45°28' E 013°00'0 0.0
2017-Oct-13 12:46N 45°28' E 013°00'0 0.0
2017-Oct-13 12:28N 45°28' E 013°00'0 0.0
2017-Oct-13 11:58N 45°28' E 013°00'0 0.0
2017-Oct-13 11:28N 45°28' E 013°00'0 0.0
2017-Oct-13 10:55N 45°28' E 013°00'0 0.0
2017-Oct-13 10:28N 45°28' E 013°00'0 0.0
2017-Oct-13 09:58N 45°28' E 013°00'0 0.0
2017-Oct-13 09:28N 45°28' E 013°00'0 0.0
2017-Oct-13 08:40N 45°28' E 013°00'0 0.0
2017-Oct-13 08:22N 45°28' E 013°00'0 0.0
2017-Oct-13 07:52N 45°28' E 013°00'0 0.0
2017-Oct-13 07:28N 45°28' E 013°00'0 0.0
2017-Oct-13 06:58N 45°28' E 013°00'0 0.0
2017-Oct-13 06:28N 45°28' E 013°00'0 0.0
2017-Oct-13 05:55N 45°28' E 013°00'0 0.0
2017-Oct-13 05:28N 45°28' E 013°00'0 0.0
2017-Oct-13 04:58N 45°28' E 013°00'0 0.0
2017-Oct-13 04:28N 45°28' E 013°00'0 0.0
2017-Oct-13 03:58N 45°28' E 013°00'0 0.0
2017-Oct-13 03:28N 45°28' E 013°00'0 0.0
2017-Oct-13 02:58N 45°28' E 013°00'0 0.0
2017-Oct-13 02:25N 45°28' E 013°00'0 0.0
2017-Oct-13 01:58N 45°28' E 013°00'0 0.0
2017-Oct-13 01:22N 45°28' E 013°00'0 0.0
2017-Oct-13 00:58N 45°28' E 013°00'0 0.0
2017-Oct-13 00:28N 45°28' E 013°00'0 0.0
2017-Oct-12 23:52N 45°28' E 013°00'0 0.0
2017-Oct-12 23:28N 45°28' E 013°00'0 0.0
2017-Oct-12 22:58N 45°28' E 013°00'0 0.0
2017-Oct-12 22:28N 45°28' E 013°00'0 0.0
2017-Oct-12 21:58N 45°28' E 013°00'0 0.0
2017-Oct-12 21:28N 45°28' E 013°00'0 0.0
2017-Oct-12 20:49N 45°28' E 013°00'0 0.0
2017-Oct-12 20:25N 45°28' E 013°00'0 0.0
2017-Oct-12 19:58N 45°28' E 013°00'0 0.0
2017-Oct-12 19:28N 45°28' E 013°00'0 0.0
2017-Oct-12 18:58N 45°28' E 013°00'0 0.0
2017-Oct-12 18:28N 45°28' E 013°00'0 0.0
2017-Oct-12 17:52N 45°28' E 013°00'0 0.0
2017-Oct-12 17:22N 45°28' E 013°00'0 0.0
2017-Oct-12 16:55N 45°28' E 013°00'0 0.0
2017-Oct-12 16:28N 45°28' E 013°00'0 0.0
2017-Oct-12 15:58N 45°28' E 013°00'0 0.0
2017-Oct-12 15:28N 45°28' E 013°00'0 0.0
2017-Oct-12 14:58N 45°28' E 013°00'0 0.0
2017-Oct-12 14:28N 45°28' E 013°00'0 0.0
2017-Oct-12 13:58N 45°28' E 013°00'0 0.0
2017-Oct-12 13:28N 45°28' E 013°00'0 0.0
2017-Oct-12 12:52N 45°28' E 013°00'0 0.0
2017-Oct-12 12:28N 45°28' E 013°00'0 0.0
2017-Oct-12 11:55N 45°28' E 013°00'0 0.0
2017-Oct-12 11:25N 45°28' E 013°00'0 0.0
2017-Oct-12 10:58N 45°28' E 013°00'0 0.0
2017-Oct-12 10:25N 45°28' E 013°00'0 0.0
2017-Oct-12 09:55N 45°28' E 013°00'0 0.0
2017-Oct-12 09:25N 45°28' E 013°00'0 0.0
2017-Oct-12 08:58N 45°28' E 013°00'0 0.0
2017-Oct-12 08:28N 45°28' E 013°00'0 0.0
2017-Oct-12 07:58N 45°28' E 013°00'0 0.0
2017-Oct-12 07:25N 45°28' E 013°00'0 0.0
2017-Oct-12 06:52N 45°28' E 013°00'0 0.0
2017-Oct-12 06:28N 45°28' E 013°00'0 0.1
2017-Oct-12 05:55N 45°28' E 013°00'0 0.0
2017-Oct-12 05:22N 45°28' E 013°00'0 0.0
2017-Oct-12 04:58N 45°28' E 013°00'0 0.0
2017-Oct-12 04:28N 45°28' E 013°00'0 0.0
2017-Oct-12 03:58N 45°28' E 013°00'0 0.0
2017-Oct-12 03:28N 45°28' E 013°00'0 0.0
2017-Oct-12 02:58N 45°28' E 013°00'0 0.0
2017-Oct-12 02:25N 45°28' E 013°00'0 0.0
2017-Oct-12 01:58N 45°28' E 013°00'0 0.0
2017-Oct-12 01:25N 45°28' E 013°00'0 0.0
2017-Oct-12 00:58N 45°28' E 013°00'0 0.0
2017-Oct-12 00:28N 45°28' E 013°00'0 0.0
2017-Oct-11 23:55N 45°28' E 013°00'0 0.0
2017-Oct-11 23:28N 45°28' E 013°00'0 0.0
2017-Oct-11 22:58N 45°28' E 013°00'0 0.0
2017-Oct-11 22:28N 45°28' E 013°00'0 0.0
2017-Oct-11 21:58N 45°28' E 013°00'0 0.0
2017-Oct-11 21:25N 45°28' E 013°00'0 0.0
2017-Oct-11 20:58N 45°28' E 013°00'0 0.0
2017-Oct-11 20:25N 45°28' E 013°00'0 0.0
2017-Oct-11 19:58N 45°28' E 013°00'0 0.0
2017-Oct-11 19:28N 45°28' E 013°00'0 0.0
2017-Oct-11 18:58N 45°28' E 013°00'0 0.0
2017-Oct-11 18:07N 45°28' E 013°00'0 0.0
2017-Oct-11 17:55N 45°28' E 013°00'0 0.0
2017-Oct-11 17:28N 45°28' E 013°00'0 0.0
2017-Oct-11 16:58N 45°28' E 013°00'0 0.0
2017-Oct-10 23:55N 45°28' E 013°00'0 0.0
2017-Oct-10 23:28N 45°28' E 013°00'0 0.0
2017-Oct-10 22:58N 45°28' E 013°00'0 0.0
2017-Oct-10 22:28N 45°28' E 013°00'0 0.0
2017-Oct-10 21:58N 45°28' E 013°00'0 0.0
2017-Oct-10 21:28N 45°28' E 013°00'0 0.0
2017-Oct-10 20:58N 45°28' E 013°00'0 0.0
2017-Oct-10 20:25N 45°28' E 013°00'0 0.0
2017-Oct-10 19:58N 45°28' E 013°00'0 0.0
2017-Oct-10 19:28N 45°28' E 013°00'0 0.0
2017-Oct-10 18:58N 45°28' E 013°00'0 0.0
2017-Oct-10 18:25N 45°28' E 013°00'0 0.0
2017-Oct-10 17:58N 45°28' E 013°00'0 0.0
2017-Oct-10 17:28N 45°28' E 013°00'0 0.0
2017-Oct-10 16:58N 45°28' E 013°00'0 0.0
2017-Oct-10 16:28N 45°28' E 013°00'0 0.0
2017-Oct-10 15:55N 45°28' E 013°00'0 0.0
2017-Oct-10 15:28N 45°28' E 013°00'0 0.0
2017-Oct-10 14:58N 45°28' E 013°00'0 0.0
2017-Oct-10 13:58N 45°28' E 013°00'0 0.0
2017-Oct-10 13:28N 45°28' E 013°00'0 0.0
2017-Oct-10 12:58N 45°28' E 013°00'0 0.0
2017-Oct-10 12:28N 45°28' E 013°00'0 0.0
2017-Oct-10 11:58N 45°28' E 013°00'0 0.0
2017-Oct-10 11:28N 45°28' E 013°00'0 0.0
2017-Oct-10 10:55N 45°28' E 013°00'0 0.0
2017-Oct-10 10:28N 45°28' E 013°00'0 0.0
2017-Oct-10 09:58N 45°28' E 013°00'0 0.0
2017-Oct-10 09:28N 45°28' E 013°00'0 0.0
2017-Oct-10 08:58N 45°28' E 013°00'0 0.0
2017-Oct-10 08:16N 45°28' E 013°00'0 0.0
2017-Oct-10 07:52N 45°28' E 013°00'0 0.0
2017-Oct-10 07:22N 45°28' E 013°00'  

Dump ship's entire track history